sensor_id;sensor_type;location;lat;lon;timestamp;pressure;altitude;pressure_sealevel;temperature;humidity
64844;BME280;51310;52.198;5.422;2024-03-02T00:01:15;99583.31;;;8.19;100.00
64844;BME280;51310;52.198;5.422;2024-03-02T00:03:42;99588.94;;;8.27;100.00
64844;BME280;51310;52.198;5.422;2024-03-02T00:06:09;99569.19;;;8.18;100.00
64844;BME280;51310;52.198;5.422;2024-03-02T00:08:35;99586.50;;;8.24;100.00
64844;BME280;51310;52.198;5.422;2024-03-02T00:11:02;99595.22;;;8.26;100.00
64844;BME280;51310;52.198;5.422;2024-03-02T00:13:29;99587.47;;;8.23;100.00
64844;BME280;51310;52.198;5.422;2024-03-02T00:15:57;99590.03;;;8.24;100.00
64844;BME280;51310;52.198;5.422;2024-03-02T00:18:30;99580.13;;;8.26;100.00
64844;BME280;51310;52.198;5.422;2024-03-02T00:20:59;99606.59;;;8.28;100.00
64844;BME280;51310;52.198;5.422;2024-03-02T00:23:33;99594.47;;;8.24;100.00
64844;BME280;51310;52.198;5.422;2024-03-02T00:26:00;99608.47;;;8.39;100.00
64844;BME280;51310;52.198;5.422;2024-03-02T00:28:30;99623.63;;;8.38;100.00
64844;BME280;51310;52.198;5.422;2024-03-02T00:31:13;99611.72;;;8.31;100.00
64844;BME280;51310;52.198;5.422;2024-03-02T00:33:46;99622.47;;;8.42;100.00
64844;BME280;51310;52.198;5.422;2024-03-02T00:36:15;99648.34;;;8.40;100.00
64844;BME280;51310;52.198;5.422;2024-03-02T00:38:49;99637.03;;;8.37;100.00
64844;BME280;51310;52.198;5.422;2024-03-02T00:41:22;99648.75;;;8.34;100.00
64844;BME280;51310;52.198;5.422;2024-03-02T00:44:06;99660.34;;;8.33;100.00
64844;BME280;51310;52.198;5.422;2024-03-02T00:46:40;99672.81;;;8.32;100.00
64844;BME280;51310;52.198;5.422;2024-03-02T00:49:24;99688.78;;;8.32;100.00
64844;BME280;51310;52.198;5.422;2024-03-02T00:51:53;99699.75;;;8.28;100.00
64844;BME280;51310;52.198;5.422;2024-03-02T00:54:25;99688.38;;;8.26;100.00
64844;BME280;51310;52.198;5.422;2024-03-02T00:56:53;99673.72;;;8.07;100.00
64844;BME280;51310;52.198;5.422;2024-03-02T00:59:22;99696.50;;;8.11;100.00
64844;BME280;51310;52.198;5.422;2024-03-02T01:01:49;99699.06;;;8.00;100.00
64844;BME280;51310;52.198;5.422;2024-03-02T01:04:15;99709.94;;;7.97;100.00
64844;BME280;51310;52.198;5.422;2024-03-02T01:06:44;99708.53;;;7.91;100.00
64844;BME280;51310;52.198;5.422;2024-03-02T01:09:11;99709.94;;;7.84;100.00
64844;BME280;51310;52.198;5.422;2024-03-02T01:11:38;99713.84;;;7.79;100.00
64844;BME280;51310;52.198;5.422;2024-03-02T01:14:04;99692.69;;;7.64;100.00
64844;BME280;51310;52.198;5.422;2024-03-02T01:16:30;99698.84;;;7.65;100.00
64844;BME280;51310;52.198;5.422;2024-03-02T01:18:56;99710.66;;;7.61;100.00
64844;BME280;51310;52.198;5.422;2024-03-02T01:21:22;99711.53;;;7.61;100.00
64844;BME280;51310;52.198;5.422;2024-03-02T01:23:47;99691.63;;;7.54;100.00
64844;BME280;51310;52.198;5.422;2024-03-02T01:26:13;99698.22;;;7.48;100.00
64844;BME280;51310;52.198;5.422;2024-03-02T01:28:39;99711.06;;;7.42;100.00
64844;BME280;51310;52.198;5.422;2024-03-02T01:31:05;99708.38;;;7.29;100.00
64844;BME280;51310;52.198;5.422;2024-03-02T01:33:31;99704.97;;;7.14;100.00
64844;BME280;51310;52.198;5.422;2024-03-02T01:35:57;99715.38;;;7.17;100.00
64844;BME280;51310;52.198;5.422;2024-03-02T01:38:23;99719.00;;;7.16;100.00
64844;BME280;51310;52.198;5.422;2024-03-02T01:40:49;99718.56;;;7.09;100.00
64844;BME280;51310;52.198;5.422;2024-03-02T01:43:15;99712.81;;;7.03;100.00
64844;BME280;51310;52.198;5.422;2024-03-02T01:45:41;99711.00;;;7.03;100.00
64844;BME280;51310;52.198;5.422;2024-03-02T01:48:07;99721.72;;;7.02;100.00
64844;BME280;51310;52.198;5.422;2024-03-02T01:50:34;99721.94;;;6.99;100.00
64844;BME280;51310;52.198;5.422;2024-03-02T01:53:01;99724.50;;;7.00;100.00
64844;BME280;51310;52.198;5.422;2024-03-02T01:55:28;99727.22;;;6.99;100.00
64844;BME280;51310;52.198;5.422;2024-03-02T01:57:58;99720.41;;;6.95;100.00
64844;BME280;51310;52.198;5.422;2024-03-02T02:00:24;99717.97;;;6.92;100.00
64844;BME280;51310;52.198;5.422;2024-03-02T02:02:52;99721.56;;;6.91;100.00
64844;BME280;51310;52.198;5.422;2024-03-02T02:05:18;99722.53;;;6.90;100.00
64844;BME280;51310;52.198;5.422;2024-03-02T02:07:44;99726.25;;;6.87;100.00
64844;BME280;51310;52.198;5.422;2024-03-02T02:10:11;99722.91;;;6.83;100.00
64844;BME280;51310;52.198;5.422;2024-03-02T02:12:37;99694.22;;;6.76;100.00
64844;BME280;51310;52.198;5.422;2024-03-02T02:15:21;99717.63;;;6.83;100.00
64844;BME280;51310;52.198;5.422;2024-03-02T02:17:47;99710.47;;;6.71;100.00
64844;BME280;51310;52.198;5.422;2024-03-02T02:20:13;99725.63;;;6.69;100.00
64844;BME280;51310;52.198;5.422;2024-03-02T02:22:39;99727.53;;;6.67;100.00
64844;BME280;51310;52.198;5.422;2024-03-02T02:25:05;99735.28;;;6.70;100.00
64844;BME280;51310;52.198;5.422;2024-03-02T02:27:31;99734.53;;;6.68;100.00
64844;BME280;51310;52.198;5.422;2024-03-02T02:29:57;99726.78;;;6.65;100.00
64844;BME280;51310;52.198;5.422;2024-03-02T02:32:23;99722.81;;;6.58;100.00
64844;BME280;51310;52.198;5.422;2024-03-02T02:34:52;99693.84;;;6.40;100.00
64844;BME280;51310;52.198;5.422;2024-03-02T02:37:18;99716.09;;;6.52;100.00
64844;BME280;51310;52.198;5.422;2024-03-02T02:39:44;99718.75;;;6.52;100.00
64844;BME280;51310;52.198;5.422;2024-03-02T02:42:12;99731.56;;;6.45;100.00
64844;BME280;51310;52.198;5.422;2024-03-02T02:44:38;99734.41;;;6.42;100.00
64844;BME280;51310;52.198;5.422;2024-03-02T02:47:04;99739.72;;;6.42;100.00
64844;BME280;51310;52.198;5.422;2024-03-02T02:49:31;99738.00;;;6.41;100.00
64844;BME280;51310;52.198;5.422;2024-03-02T02:51:57;99731.94;;;6.39;100.00
64844;BME280;51310;52.198;5.422;2024-03-02T02:54:23;99737.25;;;6.39;100.00
64844;BME280;51310;52.198;5.422;2024-03-02T02:56:48;99736.50;;;6.37;100.00
64844;BME280;51310;52.198;5.422;2024-03-02T02:59:14;99731.75;;;6.28;100.00
64844;BME280;51310;52.198;5.422;2024-03-02T03:01:40;99742.00;;;6.34;100.00
64844;BME280;51310;52.198;5.422;2024-03-02T03:04:06;99756.09;;;6.35;100.00
64844;BME280;51310;52.198;5.422;2024-03-02T03:06:32;99757.91;;;6.34;100.00
64844;BME280;51310;52.198;5.422;2024-03-02T03:08:58;99735.75;;;6.21;100.00
64844;BME280;51310;52.198;5.422;2024-03-02T03:11:24;99754.03;;;6.25;100.00
64844;BME280;51310;52.198;5.422;2024-03-02T03:13:53;99748.25;;;6.19;100.00
64844;BME280;51310;52.198;5.422;2024-03-02T03:16:20;99753.56;;;6.19;100.00
64844;BME280;51310;52.198;5.422;2024-03-02T03:18:45;99746.75;;;6.15;100.00
64844;BME280;51310;52.198;5.422;2024-03-02T03:21:11;99748.66;;;6.13;100.00
64844;BME280;51310;52.198;5.422;2024-03-02T03:23:37;99754.34;;;6.07;100.00
64844;BME280;51310;52.198;5.422;2024-03-02T03:26:03;99757.06;;;6.05;100.00
64844;BME280;51310;52.198;5.422;2024-03-02T03:28:30;99754.53;;;6.03;100.00
64844;BME280;51310;52.198;5.422;2024-03-02T03:30:56;99745.38;;;5.93;100.00
64844;BME280;51310;52.198;5.422;2024-03-02T03:33:21;99748.03;;;5.93;100.00
64844;BME280;51310;52.198;5.422;2024-03-02T03:35:47;99762.25;;;5.92;100.00
64844;BME280;51310;52.198;5.422;2024-03-02T03:38:13;99760.63;;;5.90;100.00
64844;BME280;51310;52.198;5.422;2024-03-02T03:40:39;99768.09;;;5.83;100.00
64844;BME280;51310;52.198;5.422;2024-03-02T03:43:05;99758.72;;;5.77;100.00
64844;BME280;51310;52.198;5.422;2024-03-02T03:45:31;99766.97;;;5.73;100.00
64844;BME280;51310;52.198;5.422;2024-03-02T03:47:57;99766.19;;;5.71;100.00
64844;BME280;51310;52.198;5.422;2024-03-02T03:50:23;99761.25;;;5.64;100.00
64844;BME280;51310;52.198;5.422;2024-03-02T03:52:49;99767.50;;;5.63;100.00
64844;BME280;51310;52.198;5.422;2024-03-02T03:55:14;99776.22;;;5.66;100.00
64844;BME280;51310;52.198;5.422;2024-03-02T03:57:40;99773.38;;;5.69;100.00
64844;BME280;51310;52.198;5.422;2024-03-02T04:00:07;99781.53;;;5.80;100.00
64844;BME280;51310;52.198;5.422;2024-03-02T04:02:36;99767.25;;;5.82;100.00
64844;BME280;51310;52.198;5.422;2024-03-02T04:05:02;99776.66;;;5.88;100.00
64844;BME280;51310;52.198;5.422;2024-03-02T04:07:30;99773.03;;;5.89;100.00
64844;BME280;51310;52.198;5.422;2024-03-02T04:09:56;99775.69;;;5.89;100.00
64844;BME280;51310;52.198;5.422;2024-03-02T04:12:22;99777.41;;;5.90;100.00
64844;BME280;51310;52.198;5.422;2024-03-02T04:14:48;99783.31;;;5.95;100.00
64844;BME280;51310;52.198;5.422;2024-03-02T04:17:14;99775.16;;;5.98;100.00
64844;BME280;51310;52.198;5.422;2024-03-02T04:19:40;99799.50;;;6.05;100.00
64844;BME280;51310;52.198;5.422;2024-03-02T04:22:06;99782.19;;;5.99;100.00
64844;BME280;51310;52.198;5.422;2024-03-02T04:24:31;99801.88;;;6.10;100.00
64844;BME280;51310;52.198;5.422;2024-03-02T04:26:57;99782.94;;;6.01;100.00
64844;BME280;51310;52.198;5.422;2024-03-02T04:29:23;99800.75;;;6.14;100.00
64844;BME280;51310;52.198;5.422;2024-03-02T04:31:49;99785.97;;;6.10;100.00
64844;BME280;51310;52.198;5.422;2024-03-02T04:34:15;99791.84;;;6.15;100.00
64844;BME280;51310;52.198;5.422;2024-03-02T04:36:41;99793.47;;;6.17;100.00
64844;BME280;51310;52.198;5.422;2024-03-02T04:39:07;99794.09;;;6.21;100.00
64844;BME280;51310;52.198;5.422;2024-03-02T04:41:35;99787.47;;;6.14;100.00
64844;BME280;51310;52.198;5.422;2024-03-02T04:44:01;99779.59;;;6.12;100.00
64844;BME280;51310;52.198;5.422;2024-03-02T04:46:27;99791.75;;;6.16;100.00
64844;BME280;51310;52.198;5.422;2024-03-02T04:48:53;99809.75;;;6.25;100.00
64844;BME280;51310;52.198;5.422;2024-03-02T04:51:22;99815.72;;;6.29;100.00
64844;BME280;51310;52.198;5.422;2024-03-02T04:53:48;99812.22;;;6.29;100.00
64844;BME280;51310;52.198;5.422;2024-03-02T04:56:14;99813.91;;;6.30;100.00
64844;BME280;51310;52.198;5.422;2024-03-02T04:59:10;99825.59;;;6.27;100.00
64844;BME280;51310;52.198;5.422;2024-03-02T05:01:36;99818.59;;;6.26;100.00
64844;BME280;51310;52.198;5.422;2024-03-02T05:04:04;99820.47;;;6.24;100.00
64844;BME280;51310;52.198;5.422;2024-03-02T05:06:30;99825.78;;;6.24;100.00
64844;BME280;51310;52.198;5.422;2024-03-02T05:08:56;99823.28;;;6.21;100.00
64844;BME280;51310;52.198;5.422;2024-03-02T05:11:22;99812.78;;;6.19;100.00
64844;BME280;51310;52.198;5.422;2024-03-02T05:14:07;99811.63;;;6.09;100.00
64844;BME280;51310;52.198;5.422;2024-03-02T05:16:37;99818.47;;;6.13;100.00
64844;BME280;51310;52.198;5.422;2024-03-02T05:19:07;99822.81;;;6.14;100.00
64844;BME280;51310;52.198;5.422;2024-03-02T05:21:34;99829.84;;;6.15;100.00
64844;BME280;51310;52.198;5.422;2024-03-02T05:24:00;99818.38;;;6.15;100.00
64844;BME280;51310;52.198;5.422;2024-03-02T05:26:26;99809.81;;;6.10;100.00
64844;BME280;51310;52.198;5.422;2024-03-02T05:28:52;99806.34;;;6.09;100.00
64844;BME280;51310;52.198;5.422;2024-03-02T05:31:18;99815.13;;;6.10;100.00
64844;BME280;51310;52.198;5.422;2024-03-02T05:33:44;99821.88;;;6.15;100.00
64844;BME280;51310;52.198;5.422;2024-03-02T05:36:10;99827.47;;;6.11;100.00
64844;BME280;51310;52.198;5.422;2024-03-02T05:38:36;99819.50;;;6.11;100.00
64844;BME280;51310;52.198;5.422;2024-03-02T05:41:03;99809.25;;;6.04;100.00
64844;BME280;51310;52.198;5.422;2024-03-02T05:43:29;99812.88;;;6.03;100.00
64844;BME280;51310;52.198;5.422;2024-03-02T05:45:55;99821.56;;;6.05;100.00
64844;BME280;51310;52.198;5.422;2024-03-02T05:48:20;99810.72;;;5.80;100.00
64844;BME280;51310;52.198;5.422;2024-03-02T05:50:46;99827.84;;;5.74;100.00
64844;BME280;51310;52.198;5.422;2024-03-02T05:53:12;99824.28;;;5.59;100.00
64844;BME280;51310;52.198;5.422;2024-03-02T05:55:38;99826.72;;;5.48;100.00
64844;BME280;51310;52.198;5.422;2024-03-02T05:58:04;99831.69;;;5.38;100.00
64844;BME280;51310;52.198;5.422;2024-03-02T06:00:48;99834.19;;;5.26;100.00
64844;BME280;51310;52.198;5.422;2024-03-02T06:03:14;99843.81;;;5.27;100.00
64844;BME280;51310;52.198;5.422;2024-03-02T06:05:40;99842.97;;;5.26;100.00
64844;BME280;51310;52.198;5.422;2024-03-02T06:08:06;99844.44;;;5.32;100.00
64844;BME280;51310;52.198;5.422;2024-03-02T06:10:33;99833.47;;;5.38;100.00
64844;BME280;51310;52.198;5.422;2024-03-02T06:12:58;99845.34;;;5.47;100.00
64844;BME280;51310;52.198;5.422;2024-03-02T06:15:25;99842.41;;;5.51;100.00
64844;BME280;51310;52.198;5.422;2024-03-02T06:17:50;99837.81;;;5.55;100.00
64844;BME280;51310;52.198;5.422;2024-03-02T06:20:16;99839.50;;;5.56;100.00
64844;BME280;51310;52.198;5.422;2024-03-02T06:22:42;99865.31;;;5.68;100.00
64844;BME280;51310;52.198;5.422;2024-03-02T06:25:08;99849.56;;;5.65;100.00
64844;BME280;51310;52.198;5.422;2024-03-02T06:27:34;99854.72;;;5.68;100.00
64844;BME280;51310;52.198;5.422;2024-03-02T06:30:00;99871.94;;;5.75;100.00
64844;BME280;51310;52.198;5.422;2024-03-02T06:32:26;99856.25;;;5.72;100.00
64844;BME280;51310;52.198;5.422;2024-03-02T06:34:52;99859.66;;;5.74;100.00
64844;BME280;51310;52.198;5.422;2024-03-02T06:37:18;99870.75;;;5.81;100.00
64844;BME280;51310;52.198;5.422;2024-03-02T06:39:44;99876.72;;;5.84;100.00
64844;BME280;51310;52.198;5.422;2024-03-02T06:42:10;99854.94;;;5.79;100.00
64844;BME280;51310;52.198;5.422;2024-03-02T06:44:36;99858.78;;;5.74;100.00
64844;BME280;51310;52.198;5.422;2024-03-02T06:47:02;99878.53;;;5.84;100.00
64844;BME280;51310;52.198;5.422;2024-03-02T06:49:28;99875.19;;;5.80;100.00
64844;BME280;51310;52.198;5.422;2024-03-02T06:51:54;99865.97;;;5.72;100.00
64844;BME280;51310;52.198;5.422;2024-03-02T06:54:19;99875.38;;;5.77;100.00
64844;BME280;51310;52.198;5.422;2024-03-02T06:56:45;99878.22;;;5.74;100.00
64844;BME280;51310;52.198;5.422;2024-03-02T06:59:12;99876.41;;;5.75;100.00
64844;BME280;51310;52.198;5.422;2024-03-02T07:01:38;99879.06;;;5.75;100.00
64844;BME280;51310;52.198;5.422;2024-03-02T07:04:03;99865.66;;;5.62;100.00
64844;BME280;51310;52.198;5.422;2024-03-02T07:06:31;99873.75;;;5.75;100.00
64844;BME280;51310;52.198;5.422;2024-03-02T07:08:57;99875.72;;;5.71;100.00
64844;BME280;51310;52.198;5.422;2024-03-02T07:11:23;99872.31;;;5.69;100.00
64844;BME280;51310;52.198;5.422;2024-03-02T07:13:49;99875.72;;;5.71;100.00
64844;BME280;51310;52.198;5.422;2024-03-02T07:16:15;99873.34;;;5.67;100.00
64844;BME280;51310;52.198;5.422;2024-03-02T07:18:50;99875.72;;;5.71;100.00
64844;BME280;51310;52.198;5.422;2024-03-02T07:21:17;99874.69;;;5.74;100.00
64844;BME280;51310;52.198;5.422;2024-03-02T07:23:44;99875.66;;;5.73;100.00
64844;BME280;51310;52.198;5.422;2024-03-02T07:26:12;99864.78;;;5.77;100.00
64844;BME280;51310;52.198;5.422;2024-03-02T07:28:38;99884.41;;;5.89;100.00
64844;BME280;51310;52.198;5.422;2024-03-02T07:31:05;99890.91;;;5.99;100.00
64844;BME280;51310;52.198;5.422;2024-03-02T07:33:31;99896.88;;;6.03;100.00
64844;BME280;51310;52.198;5.422;2024-03-02T07:35:58;99893.09;;;6.07;100.00
64844;BME280;51310;52.198;5.422;2024-03-02T07:38:28;99890.16;;;6.12;100.00
64844;BME280;51310;52.198;5.422;2024-03-02T07:40:55;99899.25;;;6.08;100.00
64844;BME280;51310;52.198;5.422;2024-03-02T07:43:21;99904.19;;;6.14;100.00
64844;BME280;51310;52.198;5.422;2024-03-02T07:45:48;99893.16;;;6.21;100.00
64844;BME280;51310;52.198;5.422;2024-03-02T07:48:17;99906.13;;;6.26;100.00
64844;BME280;51310;52.198;5.422;2024-03-02T07:50:43;99915.22;;;6.36;100.00
64844;BME280;51310;52.198;5.422;2024-03-02T07:53:10;99908.78;;;6.40;100.00
64844;BME280;51310;52.198;5.422;2024-03-02T07:55:36;99908.03;;;6.38;100.00
64844;BME280;51310;52.198;5.422;2024-03-02T07:58:02;99911.44;;;6.40;100.00
64844;BME280;51310;52.198;5.422;2024-03-02T08:00:28;99913.34;;;6.38;100.00
64844;BME280;51310;52.198;5.422;2024-03-02T08:02:54;99905.19;;;6.27;100.00
64844;BME280;51310;52.198;5.422;2024-03-02T08:05:21;99920.72;;;6.33;100.00
64844;BME280;51310;52.198;5.422;2024-03-02T08:07:47;99927.16;;;6.29;100.00
64844;BME280;51310;52.198;5.422;2024-03-02T08:10:13;99929.13;;;6.25;100.00
64844;BME280;51310;52.198;5.422;2024-03-02T08:12:40;99929.53;;;6.34;100.00
64844;BME280;51310;52.198;5.422;2024-03-02T08:15:06;99921.44;;;6.21;100.00
64844;BME280;51310;52.198;5.422;2024-03-02T08:17:32;99921.28;;;6.24;100.00
64844;BME280;51310;52.198;5.422;2024-03-02T08:19:58;99927.56;;;6.37;100.00
64844;BME280;51310;52.198;5.422;2024-03-02T08:22:24;99934.28;;;6.29;100.00
64844;BME280;51310;52.198;5.422;2024-03-02T08:24:53;99939.13;;;6.36;100.00
64844;BME280;51310;52.198;5.422;2024-03-02T08:27:20;99938.28;;;6.36;100.00
64844;BME280;51310;52.198;5.422;2024-03-02T08:29:46;99911.53;;;6.24;100.00
64844;BME280;51310;52.198;5.422;2024-03-02T08:32:12;99935.06;;;6.45;100.00
64844;BME280;51310;52.198;5.422;2024-03-02T08:34:38;99927.50;;;6.53;100.00
64844;BME280;51310;52.198;5.422;2024-03-02T08:37:04;99931.75;;;6.56;100.00
64844;BME280;51310;52.198;5.422;2024-03-02T08:39:30;99922.47;;;6.63;100.00
64844;BME280;51310;52.198;5.422;2024-03-02T08:41:56;99932.78;;;6.82;100.00
64844;BME280;51310;52.198;5.422;2024-03-02T08:44:22;99919.53;;;6.96;100.00
64844;BME280;51310;52.198;5.422;2024-03-02T08:46:48;99934.59;;;7.10;100.00
64844;BME280;51310;52.198;5.422;2024-03-02T08:49:14;99938.03;;;7.12;100.00
64844;BME280;51310;52.198;5.422;2024-03-02T08:51:40;99938.56;;;7.17;100.00
64844;BME280;51310;52.198;5.422;2024-03-02T08:54:06;99932.88;;;7.23;100.00
64844;BME280;51310;52.198;5.422;2024-03-02T08:56:32;99929.34;;;7.37;100.00
64844;BME280;51310;52.198;5.422;2024-03-02T08:58:58;99927.81;;;7.33;100.00
64844;BME280;51310;52.198;5.422;2024-03-02T09:01:24;99937.31;;;7.37;100.00
64844;BME280;51310;52.198;5.422;2024-03-02T09:03:50;99929.13;;;7.40;100.00
64844;BME280;51310;52.198;5.422;2024-03-02T09:06:16;99930.63;;;7.44;100.00
64844;BME280;51310;52.198;5.422;2024-03-02T09:08:43;99922.38;;;7.49;100.00
64844;BME280;51310;52.198;5.422;2024-03-02T09:11:10;99928.22;;;7.54;100.00
64844;BME280;51310;52.198;5.422;2024-03-02T09:13:38;99932.59;;;7.55;100.00
64844;BME280;51310;52.198;5.422;2024-03-02T09:16:04;99937.84;;;7.57;100.00
64844;BME280;51310;52.198;5.422;2024-03-02T09:18:31;99932.66;;;7.68;100.00
64844;BME280;51310;52.198;5.422;2024-03-02T09:20:57;99935.66;;;7.76;100.00
64844;BME280;51310;52.198;5.422;2024-03-02T09:23:23;99932.31;;;7.87;100.00
64844;BME280;51310;52.198;5.422;2024-03-02T09:25:49;99935.19;;;7.97;100.00
64844;BME280;51310;52.198;5.422;2024-03-02T09:28:17;99941.19;;;8.00;100.00
64844;BME280;51310;52.198;5.422;2024-03-02T09:30:44;99925.13;;;8.02;100.00
64844;BME280;51310;52.198;5.422;2024-03-02T09:33:10;99945.13;;;8.07;100.00
64844;BME280;51310;52.198;5.422;2024-03-02T09:35:35;99921.53;;;8.16;100.00
64844;BME280;51310;52.198;5.422;2024-03-02T09:38:01;99942.81;;;8.28;100.00
64844;BME280;51310;52.198;5.422;2024-03-02T09:40:29;99941.34;;;8.37;100.00
64844;BME280;51310;52.198;5.422;2024-03-02T09:42:55;99937.34;;;8.44;100.00
64844;BME280;51310;52.198;5.422;2024-03-02T09:45:24;99947.25;;;8.55;100.00
64844;BME280;51310;52.198;5.422;2024-03-02T09:47:51;99958.25;;;8.63;100.00
64844;BME280;51310;52.198;5.422;2024-03-02T09:50:16;99957.41;;;8.63;100.00
64844;BME280;51310;52.198;5.422;2024-03-02T09:52:43;99938.22;;;8.70;100.00
64844;BME280;51310;52.198;5.422;2024-03-02T09:55:13;99940.88;;;8.70;100.00
64844;BME280;51310;52.198;5.422;2024-03-02T09:57:41;99943.31;;;8.73;100.00
64844;BME280;51310;52.198;5.422;2024-03-02T10:00:08;99944.06;;;8.88;100.00
64844;BME280;51310;52.198;5.422;2024-03-02T10:02:43;99948.00;;;8.95;100.00
64844;BME280;51310;52.198;5.422;2024-03-02T10:05:10;99949.72;;;8.96;100.00
64844;BME280;51310;52.198;5.422;2024-03-02T10:07:37;99948.22;;;9.05;100.00
64844;BME280;51310;52.198;5.422;2024-03-02T10:10:14;99952.91;;;9.14;100.00
64844;BME280;51310;52.198;5.422;2024-03-02T10:12:41;99945.84;;;9.13;100.00
64844;BME280;51310;52.198;5.422;2024-03-02T10:15:07;99948.41;;;9.15;100.00
64844;BME280;51310;52.198;5.422;2024-03-02T10:17:35;99937.19;;;9.23;100.00
64844;BME280;51310;52.198;5.422;2024-03-02T10:20:22;99929.75;;;9.15;100.00
64844;BME280;51310;52.198;5.422;2024-03-02T10:22:54;99948.38;;;9.28;100.00
64844;BME280;51310;52.198;5.422;2024-03-02T10:25:33;99944.34;;;9.22;100.00
64844;BME280;51310;52.198;5.422;2024-03-02T10:28:00;99950.94;;;9.29;100.00
64844;BME280;51310;52.198;5.422;2024-03-02T10:30:29;99947.09;;;9.33;100.00
64844;BME280;51310;52.198;5.422;2024-03-02T10:32:55;99940.75;;;9.47;100.00
64844;BME280;51310;52.198;5.422;2024-03-02T10:35:24;99940.66;;;9.49;100.00
64844;BME280;51310;52.198;5.422;2024-03-02T10:37:52;99936.56;;;9.56;100.00
64844;BME280;51310;52.198;5.422;2024-03-02T10:40:21;99943.38;;;9.60;100.00
64844;BME280;51310;52.198;5.422;2024-03-02T10:42:48;99947.97;;;9.58;100.00
64844;BME280;51310;52.198;5.422;2024-03-02T10:45:16;99937.81;;;9.63;100.00
64844;BME280;51310;52.198;5.422;2024-03-02T10:47:47;99928.19;;;9.73;100.00
64844;BME280;51310;52.198;5.422;2024-03-02T10:50:13;99932.94;;;9.81;100.00
64844;BME280;51310;52.198;5.422;2024-03-02T10:52:39;99925.56;;;9.85;100.00
64844;BME280;51310;52.198;5.422;2024-03-02T10:55:07;99928.97;;;9.87;100.00
64844;BME280;51310;52.198;5.422;2024-03-02T10:57:45;99914.44;;;9.91;100.00
64844;BME280;51310;52.198;5.422;2024-03-02T11:00:17;99905.41;;;9.80;100.00
64844;BME280;51310;52.198;5.422;2024-03-02T11:02:58;99913.94;;;9.97;100.00
64844;BME280;51310;52.198;5.422;2024-03-02T11:05:40;99919.09;;;10.00;100.00
64844;BME280;51310;52.198;5.422;2024-03-02T11:08:13;99905.25;;;10.06;100.00
64844;BME280;51310;52.198;5.422;2024-03-02T11:10:57;99915.00;;;10.18;100.00
64844;BME280;51310;52.198;5.422;2024-03-02T11:13:34;99901.38;;;10.10;100.00
64844;BME280;51310;52.198;5.422;2024-03-02T11:16:09;99910.56;;;10.30;100.00
64844;BME280;51310;52.198;5.422;2024-03-02T11:18:42;99898.75;;;10.21;100.00
64844;BME280;51310;52.198;5.422;2024-03-02T11:21:09;99918.00;;;10.38;100.00
64844;BME280;51310;52.198;5.422;2024-03-02T11:23:35;99907.56;;;10.35;100.00
64844;BME280;51310;52.198;5.422;2024-03-02T11:26:21;99913.75;;;10.35;100.00
64844;BME280;51310;52.198;5.422;2024-03-02T11:28:49;99916.94;;;10.52;100.00
64844;BME280;51310;52.198;5.422;2024-03-02T11:31:15;99931.16;;;10.52;100.00
64844;BME280;51310;52.198;5.422;2024-03-02T11:33:41;99913.19;;;10.54;100.00
64844;BME280;51310;52.198;5.422;2024-03-02T11:36:09;99919.25;;;10.56;100.00
64844;BME280;51310;52.198;5.422;2024-03-02T11:38:36;99903.97;;;10.58;100.00
64844;BME280;51310;52.198;5.422;2024-03-02T11:41:06;99925.38;;;10.81;100.00
64844;BME280;51310;52.198;5.422;2024-03-02T11:43:38;99912.09;;;10.68;100.00
64844;BME280;51310;52.198;5.422;2024-03-02T11:46:07;99905.19;;;10.66;100.00
64844;BME280;51310;52.198;5.422;2024-03-02T11:48:36;99912.59;;;10.73;100.00
64844;BME280;51310;52.198;5.422;2024-03-02T11:51:03;99899.38;;;10.94;100.00
64844;BME280;51310;52.198;5.422;2024-03-02T11:53:31;99899.69;;;11.01;100.00
64844;BME280;51310;52.198;5.422;2024-03-02T11:55:59;99899.47;;;11.04;100.00
64844;BME280;51310;52.198;5.422;2024-03-02T11:58:27;99900.06;;;11.08;100.00
64844;BME280;51310;52.198;5.422;2024-03-02T12:00:54;99890.63;;;11.03;100.00
64844;BME280;51310;52.198;5.422;2024-03-02T12:03:25;99895.69;;;11.07;100.00
64844;BME280;51310;52.198;5.422;2024-03-02T12:05:55;99880.66;;;11.06;100.00
64844;BME280;51310;52.198;5.422;2024-03-02T12:08:24;99888.88;;;11.14;100.00
64844;BME280;51310;52.198;5.422;2024-03-02T12:10:59;99874.31;;;11.18;100.00
64844;BME280;51310;52.198;5.422;2024-03-02T12:13:26;99877.44;;;11.23;100.00
64844;BME280;51310;52.198;5.422;2024-03-02T12:15:55;99883.06;;;11.20;100.00
64844;BME280;51310;52.198;5.422;2024-03-02T12:18:22;99877.69;;;11.20;100.00
64844;BME280;51310;52.198;5.422;2024-03-02T12:20:49;99863.13;;;11.13;100.00
64844;BME280;51310;52.198;5.422;2024-03-02T12:23:22;99870.78;;;11.17;100.00
64844;BME280;51310;52.198;5.422;2024-03-02T12:25:48;99856.06;;;11.23;100.00
64844;BME280;51310;52.198;5.422;2024-03-02T12:28:14;99858.81;;;11.44;100.00
64844;BME280;51310;52.198;5.422;2024-03-02T12:30:40;99851.53;;;11.23;100.00
64844;BME280;51310;52.198;5.422;2024-03-02T12:33:07;99850.94;;;11.31;100.00
64844;BME280;51310;52.198;5.422;2024-03-02T12:35:32;99863.56;;;11.40;100.00
64844;BME280;51310;52.198;5.422;2024-03-02T12:37:58;99855.53;;;11.40;100.00
64844;BME280;51310;52.198;5.422;2024-03-02T12:40:24;99859.66;;;11.44;100.00
64844;BME280;51310;52.198;5.422;2024-03-02T12:42:50;99863.06;;;11.46;100.00
64844;BME280;51310;52.198;5.422;2024-03-02T12:45:16;99863.78;;;11.49;100.00
64844;BME280;51310;52.198;5.422;2024-03-02T12:47:49;99844.44;;;11.45;100.00
64844;BME280;51310;52.198;5.422;2024-03-02T12:50:17;99826.91;;;11.52;100.00
64844;BME280;51310;52.198;5.422;2024-03-02T12:52:44;99832.13;;;11.54;100.00
64844;BME280;51310;52.198;5.422;2024-03-02T12:55:17;99829.00;;;11.49;100.00
64844;BME280;51310;52.198;5.422;2024-03-02T12:57:44;99837.03;;;11.49;100.00
64844;BME280;51310;52.198;5.422;2024-03-02T13:00:10;99827.06;;;11.51;100.00